Time;durP1;ratioP1;P1;durP2;ratioP2;P2;SDS_P1;SDS_P2;PMS_P1;PMS_P2;Temp;Humidity;BMP_temperature;BMP_pressure;BME280_temperature;BME280_humidity;BME280_pressure;Samples;Min_cycle;Max_cycle;Signal;HPM_P1;HPM_P2
2022/01/05 00:04:19;;;;;;;6.70;2.80;;;;;;;5.43;100.00;98397.84;10476851;28;20224;-63
2022/01/05 00:09:22;;;;;;;6.27;2.60;;;;;;;5.36;100.00;98408.28;10462915;28;20224;-63
2022/01/05 00:14:27;;;;;;;7.03;2.90;;;;;;;5.29;100.00;98406.72;10462586;28;20209;-66
2022/01/05 00:19:34;;;;;;;6.30;3.03;;;;;;;5.40;100.00;98422.78;10462656;28;20294;-62
2022/01/05 00:24:41;;;;;;;7.57;3.30;;;;;;;5.38;100.00;98433.09;10494024;28;20211;-64
2022/01/05 00:29:45;;;;;;;9.00;4.60;;;;;;;5.26;100.00;98435.94;10545610;28;20223;-63
2022/01/05 00:34:48;;;;;;;10.87;5.60;;;;;;;5.30;100.00;98441.81;10545118;28;20247;-64
2022/01/05 00:39:52;;;;;;;11.37;5.90;;;;;;;5.28;100.00;98446.19;10545121;28;20215;-63
2022/01/05 00:44:56;;;;;;;12.20;6.03;;;;;;;5.30;100.00;98452.13;10544966;28;20699;-65
2022/01/05 00:49:59;;;;;;;11.40;5.83;;;;;;;5.40;100.00;98453.66;10544541;28;20223;-61
2022/01/05 00:55:04;;;;;;;10.43;5.60;;;;;;;5.24;100.00;98463.38;10545273;28;20222;-62
2022/01/05 01:00:10;;;;;;;12.73;6.00;;;;;;;5.45;100.00;98464.69;10547354;28;20219;-61
2022/01/05 01:05:14;;;;;;;9.50;5.77;;;;;;;5.55;100.00;98468.75;10547003;28;20231;-65
2022/01/05 01:10:18;;;;;;;12.07;5.47;;;;;;;5.66;100.00;98451.38;10546570;28;20215;-60
2022/01/05 01:15:22;;;;;;;9.07;5.00;;;;;;;5.77;100.00;98464.84;10547073;28;20221;-60
2022/01/05 01:20:26;;;;;;;10.73;5.23;;;;;;;5.65;100.00;98471.13;10546776;28;20223;-63
2022/01/05 01:25:29;;;;;;;10.57;5.67;;;;;;;5.78;100.00;98461.41;10546432;28;20522;-65
2022/01/05 01:30:34;;;;;;;11.73;5.73;;;;;;;5.60;100.00;98474.66;10546320;28;20223;-63
2022/01/05 01:35:37;;;;;;;10.80;5.40;;;;;;;5.70;100.00;98489.88;10546690;28;20302;-66
2022/01/05 01:40:41;;;;;;;10.80;5.30;;;;;;;5.85;100.00;98486.16;10546183;28;20241;-63
2022/01/05 01:45:45;;;;;;;10.67;5.43;;;;;;;5.88;100.00;98485.25;10545831;28;20497;-63
2022/01/05 01:50:49;;;;;;;11.37;5.23;;;;;;;5.90;100.00;98493.78;10545638;28;20205;-65
2022/01/05 01:55:53;;;;;;;12.50;6.90;;;;;;;5.91;100.00;98498.91;10545207;28;20206;-66
2022/01/05 02:00:58;;;;;;;10.43;5.93;;;;;;;5.83;100.00;98498.22;10545131;28;20216;-63
2022/01/05 02:06:01;;;;;;;13.43;6.33;;;;;;;5.73;100.00;98506.97;10544806;28;20680;-62
2022/01/05 02:11:07;;;;;;;13.13;7.70;;;;;;;5.88;100.00;98499.81;10544790;28;20225;-63
2022/01/05 02:16:13;;;;;;;14.63;7.80;;;;;;;6.02;100.00;98514.97;10544456;28;20188;-62
2022/01/05 02:21:19;;;;;;;12.57;6.57;;;;;;;6.07;100.00;98520.88;10543430;28;20219;-67
2022/01/05 02:26:22;;;;;;;15.33;7.97;;;;;;;6.12;100.00;98519.03;10544560;28;20187;-66
2022/01/05 02:31:26;;;;;;;13.73;8.17;;;;;;;6.15;100.00;98507.81;10543896;28;20209;-66
2022/01/05 02:36:31;;;;;;;14.50;8.57;;;;;;;6.06;100.00;98513.19;10540798;28;20192;-60
2022/01/05 02:41:34;;;;;;;17.80;8.47;;;;;;;6.12;100.00;98524.19;10540489;28;20211;-64
2022/01/05 02:46:37;;;;;;;19.00;10.30;;;;;;;6.03;100.00;98533.84;10540937;28;20203;-70
2022/01/05 02:51:42;;;;;;;18.30;10.23;;;;;;;6.12;100.00;98549.94;10540198;28;20191;-59
2022/01/05 02:56:45;;;;;;;18.20;9.83;;;;;;;6.31;100.00;98534.94;10540508;28;20207;-62
2022/01/05 03:01:48;;;;;;;17.00;8.73;;;;;;;6.24;100.00;98544.53;10169140;28;9999882;-63
2022/01/05 03:06:54;;;;;;;18.30;8.80;;;;;;;6.40;100.00;98553.59;10497787;28;20609;-65
2022/01/05 03:11:57;;;;;;;19.40;8.87;;;;;;;6.28;100.00;98561.59;10491579;28;20195;-63
2022/01/05 03:17:00;;;;;;;19.03;10.73;;;;;;;6.27;100.00;98561.63;10457422;28;20217;-63
2022/01/05 03:22:05;;;;;;;18.90;10.53;;;;;;;6.37;100.00;98551.09;10471469;28;20230;-62
2022/01/05 03:27:08;;;;;;;22.87;11.13;;;;;;;6.33;100.00;98557.22;10497460;28;20192;-62
2022/01/05 03:32:11;;;;;;;17.53;9.60;;;;;;;6.36;100.00;98553.72;10486894;28;20220;-62
2022/01/05 03:37:16;;;;;;;18.37;9.70;;;;;;;6.42;100.00;98548.44;10464148;28;20216;-62
2022/01/05 03:42:19;;;;;;;21.00;10.40;;;;;;;6.48;100.00;98535.38;10464116;28;20658;-64
2022/01/05 03:47:23;;;;;;;20.20;11.60;;;;;;;6.40;100.00;98522.66;10464292;28;20220;-61
2022/01/05 03:52:27;;;;;;;16.80;10.43;;;;;;;6.42;100.00;98526.06;10463756;28;20216;-64
2022/01/05 03:57:32;;;;;;;16.53;10.67;;;;;;;6.53;100.00;98536.97;10469250;28;20220;-65
2022/01/05 04:02:35;;;;;;;19.47;10.73;;;;;;;6.55;100.00;98542.97;10466134;28;20316;-64
2022/01/05 04:07:40;;;;;;;16.60;10.23;;;;;;;6.60;100.00;98545.41;10477525;28;20653;-63
2022/01/05 04:12:43;;;;;;;18.33;10.67;;;;;;;6.52;100.00;98545.59;10507885;28;20668;-66
2022/01/05 04:17:47;;;;;;;20.90;11.53;;;;;;;6.59;100.00;98539.41;10507282;28;20224;-65
2022/01/05 04:22:51;;;;;;;20.57;11.33;;;;;;;6.55;100.00;98527.50;10507112;28;20242;-64
2022/01/05 04:27:55;;;;;;;18.43;10.83;;;;;;;6.50;100.00;98529.34;10506839;28;20216;-64
2022/01/05 04:32:58;;;;;;;17.10;10.23;;;;;;;6.50;100.00;98538.78;10506715;28;20216;-66
2022/01/05 04:38:23;;;;;;;20.47;11.10;;;;;;;6.38;100.00;98542.50;10506825;28;20239;-61
2022/01/05 04:43:26;;;;;;;18.77;11.03;;;;;;;6.27;100.00;98564.22;10505379;28;20226;-67
2022/01/05 04:48:32;;;;;;;20.43;12.07;;;;;;;6.38;100.00;98568.25;10506328;28;20212;-63
2022/01/05 04:53:37;;;;;;;18.97;10.87;;;;;;;6.42;100.00;98564.72;10506077;28;20216;-65
2022/01/05 04:58:40;;;;;;;19.67;12.67;;;;;;;6.37;100.00;98563.97;10505874;28;20223;-62
2022/01/05 05:03:43;;;;;;;17.70;11.00;;;;;;;6.47;100.00;98580.91;10505698;28;20232;-61
2022/01/05 05:08:48;;;;;;;18.13;10.70;;;;;;;6.38;100.00;98568.25;10505647;28;20228;-63
2022/01/05 05:13:51;;;;;;;19.23;11.87;;;;;;;6.47;100.00;98568.03;10505074;28;20553;-63
2022/01/05 05:18:55;;;;;;;18.60;12.13;;;;;;;6.48;100.00;98558.59;10504953;28;20227;-63
2022/01/05 05:23:59;;;;;;;20.37;11.70;;;;;;;6.39;100.00;98556.22;10504787;28;20633;-64
2022/01/05 05:29:03;;;;;;;19.37;12.90;;;;;;;6.41;100.00;98598.25;10504790;28;20220;-63
2022/01/05 05:34:06;;;;;;;20.10;12.87;;;;;;;6.43;100.00;98619.69;10504234;28;20325;-65
2022/01/05 05:39:10;;;;;;;22.60;13.13;;;;;;;6.46;100.00;98606.72;10503727;28;20234;-63
2022/01/05 05:44:14;;;;;;;17.80;11.20;;;;;;;6.43;100.00;98625.69;10504064;28;20227;-68
2022/01/05 05:49:17;;;;;;;18.67;11.23;;;;;;;6.54;100.00;98623.72;10503762;28;20545;-68
2022/01/05 05:54:21;;;;;;;17.27;10.73;;;;;;;6.72;100.00;98632.75;10503875;28;20268;-63
2022/01/05 05:59:25;;;;;;;21.97;13.27;;;;;;;6.53;100.00;98650.38;10503016;28;20650;-63
2022/01/05 06:04:29;;;;;;;20.00;12.93;;;;;;;6.54;100.00;98648.66;10502771;28;20662;-65
2022/01/05 06:09:34;;;;;;;19.33;10.33;;;;;;;6.52;100.00;98646.09;10503023;28;20232;-62
2022/01/05 06:14:37;;;;;;;17.43;10.60;;;;;;;6.62;100.00;98649.31;10502886;28;20246;-63
2022/01/05 06:19:40;;;;;;;20.77;10.90;;;;;;;6.45;100.00;98662.59;10502273;28;20228;-64
2022/01/05 06:24:45;;;;;;;20.03;11.30;;;;;;;6.52;100.00;98661.53;10502192;28;20208;-65
2022/01/05 06:29:48;;;;;;;16.23;10.20;;;;;;;6.64;100.00;98661.28;10502039;28;20322;-62
2022/01/05 06:34:52;;;;;;;19.90;11.77;;;;;;;6.59;100.00;98673.41;10502142;28;20216;-62
2022/01/05 06:39:56;;;;;;;17.80;11.37;;;;;;;6.53;100.00;98698.47;10500005;28;20230;-60
2022/01/05 06:45:00;;;;;;;16.13;9.70;;;;;;;6.55;100.00;98689.84;10460054;28;20223;-62
2022/01/05 06:50:04;;;;;;;14.23;9.70;;;;;;;6.70;100.00;98686.09;10459937;28;20297;-62
2022/01/05 06:55:10;;;;;;;16.03;10.03;;;;;;;6.59;100.00;98688.88;10459960;28;20236;-61
2022/01/05 07:00:14;;;;;;;14.37;9.80;;;;;;;6.60;100.00;98692.31;10460087;28;20224;-60
2022/01/05 07:05:17;;;;;;;12.80;8.50;;;;;;;6.49;100.00;98692.53;10459173;28;20323;-62
2022/01/05 07:10:21;;;;;;;13.00;7.23;;;;;;;6.66;100.00;98703.34;10459173;28;20677;-61
2022/01/05 07:15:25;;;;;;;13.23;7.47;;;;;;;6.65;100.00;98690.50;10459328;28;20243;-63
2022/01/05 07:20:28;;;;;;;11.53;6.87;;;;;;;6.65;100.00;98677.59;10458997;28;20294;-63
2022/01/05 07:25:33;;;;;;;14.97;9.53;;;;;;;6.62;100.00;98683.69;10459023;28;20225;-62
2022/01/05 07:30:36;;;;;;;14.23;9.50;;;;;;;6.70;100.00;98679.22;10458972;28;20228;-63
2022/01/05 07:35:39;;;;;;;15.70;10.13;;;;;;;6.59;100.00;98691.47;10459345;28;20555;-63
2022/01/05 07:40:44;;;;;;;14.47;10.03;;;;;;;6.57;100.00;98693.25;10458868;28;20651;-66
2022/01/05 07:45:47;;;;;;;15.83;9.60;;;;;;;6.61;100.00;98694.03;10459431;28;20281;-62
2022/01/05 07:50:51;;;;;;;16.77;10.03;;;;;;;6.60;100.00;98680.28;10458417;28;20274;-62
2022/01/05 07:55:55;;;;;;;15.27;9.30;;;;;;;6.70;100.00;98679.22;10458585;28;20220;-61
2022/01/05 08:00:58;;;;;;;15.60;9.77;;;;;;;6.58;100.00;98689.78;10458158;28;20234;-66
2022/01/05 08:06:02;;;;;;;14.03;9.70;;;;;;;6.71;100.00;98685.22;10458632;28;20322;-61
2022/01/05 08:11:07;;;;;;;14.67;9.23;;;;;;;6.69;100.00;98674.09;10458529;28;20220;-62
2022/01/05 08:16:11;;;;;;;15.43;8.93;;;;;;;6.62;100.00;98670.81;10458029;28;20212;-62
2022/01/05 08:21:16;;;;;;;14.47;9.03;;;;;;;6.66;100.00;98667.25;10465018;28;20553;-61
2022/01/05 08:26:21;;;;;;;14.63;9.37;;;;;;;6.70;100.00;98666.31;10465418;28;20303;-61
2022/01/05 08:31:24;;;;;;;16.07;9.37;;;;;;;6.73;100.00;98670.56;10465390;28;20300;-60
2022/01/05 08:36:27;;;;;;;15.90;9.80;;;;;;;6.70;100.00;98674.06;10465245;28;20254;-66
2022/01/05 08:41:32;;;;;;;16.67;9.87;;;;;;;6.70;100.00;98678.34;10464811;28;20307;-65
2022/01/05 08:46:35;;;;;;;22.50;11.30;;;;;;;6.61;100.00;98673.41;10464709;28;20307;-62
2022/01/05 08:51:39;;;;;;;18.80;10.33;;;;;;;6.60;100.00;98682.88;10464673;28;20216;-63
2022/01/05 08:56:44;;;;;;;21.37;12.03;;;;;;;6.56;100.00;98681.22;10464816;28;20303;-63
2022/01/05 09:01:47;;;;;;;19.10;10.80;;;;;;;6.53;100.00;98685.59;10463988;28;20307;-63
2022/01/05 09:06:51;;;;;;;17.73;9.57;;;;;;;6.55;100.00;98689.84;10464245;28;20235;-71
2022/01/05 09:11:55;;;;;;;13.90;8.20;;;;;;;6.54;100.00;98688.13;10464057;28;20671;-66
2022/01/05 09:16:59;;;;;;;16.70;10.10;;;;;;;6.63;100.00;98687.94;10463444;28;20543;-64
2022/01/05 09:22:02;;;;;;;16.50;9.67;;;;;;;6.74;100.00;98688.59;10463336;28;20308;-62
2022/01/05 09:27:25;;;;;;;13.13;8.57;;;;;;;6.67;100.00;98686.16;10463295;28;20295;-66
2022/01/05 09:32:29;;;;;;;16.37;10.23;;;;;;;6.75;100.00;98681.66;10161460;27;10000972;-64
2022/01/05 09:37:35;;;;;;;15.20;9.67;;;;;;;6.77;100.00;98680.78;10542836;28;20226;-63
2022/01/05 09:42:41;;;;;;;14.80;9.83;;;;;;;6.88;100.00;98673.66;10542886;28;20969;-62
2022/01/05 09:48:02;;;;;;;17.97;11.17;;;;;;;6.84;100.00;98676.31;10542086;28;20940;-62
2022/01/05 09:53:06;;;;;;;17.70;10.83;;;;;;;6.88;100.00;98693.44;10542525;28;20309;-63
2022/01/05 09:58:10;;;;;;;18.63;10.37;;;;;;;6.95;100.00;98682.94;10542039;28;20233;-62
2022/01/05 10:03:15;;;;;;;17.80;10.30;;;;;;;7.07;100.00;98685.22;10541559;28;20318;-63
2022/01/05 10:08:18;;;;;;;15.47;9.53;;;;;;;6.96;100.00;98689.78;10541746;28;20219;-62
2022/01/05 10:13:23;;;;;;;16.03;9.33;;;;;;;7.07;100.00;98682.63;10541383;28;20223;-59
2022/01/05 10:18:38;;;;;;;16.07;9.33;;;;;;;7.04;100.00;98682.72;10525875;28;20295;-64
2022/01/05 10:23:44;;;;;;;16.10;9.60;;;;;;;7.07;100.00;98692.13;10498948;28;20226;-63
2022/01/05 10:28:50;;;;;;;15.13;9.97;;;;;;;7.06;100.00;98687.00;10498882;28;20270;-63
2022/01/05 10:33:53;;;;;;;17.77;10.83;;;;;;;6.96;100.00;98674.31;10537501;28;20241;-62
2022/01/05 10:38:59;;;;;;;14.17;8.77;;;;;;;7.07;100.00;98667.16;10540361;28;20229;-64
2022/01/05 10:44:18;;;;;;;15.83;9.90;;;;;;;7.00;100.00;98668.22;10539182;28;20649;-65
2022/01/05 10:49:30;;;;;;;16.10;10.50;;;;;;;6.87;100.00;98656.47;10498025;28;20315;-61
2022/01/05 10:54:34;;;;;;;25.47;15.90;;;;;;;6.95;100.00;98667.44;10496561;28;20224;-66
2022/01/05 10:59:42;;;;;;;16.90;9.73;;;;;;;6.91;100.00;98663.28;10494678;28;20301;-62
2022/01/05 11:04:45;;;;;;;17.53;11.43;;;;;;;7.01;100.00;98648.41;10494110;28;20231;-64
2022/01/05 11:09:58;;;;;;;18.03;9.70;;;;;;;7.01;100.00;98648.41;10497354;28;20214;-64
2022/01/05 11:15:28;;;;;;;15.50;10.13;;;;;;;6.95;100.00;98646.00;10484422;28;20197;-65
2022/01/05 11:20:31;;;;;;;18.67;10.60;;;;;;;7.00;100.00;98634.69;10470924;28;20219;-64
2022/01/05 11:25:36;;;;;;;15.67;10.03;;;;;;;7.01;100.00;98623.47;10496693;28;20208;-64
2022/01/05 11:30:42;;;;;;;17.20;10.73;;;;;;;7.00;100.00;98624.38;10496180;28;20215;-65
2022/01/05 11:35:46;;;;;;;25.13;10.97;;;;;;;6.92;100.00;98628.84;10497269;28;20192;-65
2022/01/05 11:40:52;;;;;;;35.83;22.00;;;;;;;6.93;100.00;98640.03;10496885;28;20199;-67
2022/01/05 11:45:57;;;;;;;17.93;11.17;;;;;;;6.81;100.00;98640.31;10494575;28;20621;-65
2022/01/05 11:51:02;;;;;;;16.63;10.10;;;;;;;6.71;100.00;98639.66;10455917;28;20193;-66
2022/01/05 11:56:18;;;;;;;14.67;8.87;;;;;;;6.56;100.00;98623.66;10463023;28;20189;-66
2022/01/05 12:01:31;;;;;;;16.50;9.67;;;;;;;6.55;100.00;98630.56;10467636;28;20656;-66
2022/01/05 12:07:01;;;;;;;16.20;9.90;;;;;;;6.51;100.00;98633.22;10485142;28;20260;-65
2022/01/05 12:12:38;;;;;;;14.87;9.23;;;;;;;6.48;100.00;98626.44;10487941;28;20280;-65
2022/01/05 12:17:43;;;;;;;16.80;10.70;;;;;;;6.37;100.00;98641.25;10463294;28;20745;-66
2022/01/05 12:22:46;;;;;;;20.17;11.63;;;;;;;6.35;100.00;98635.28;10490411;28;20242;-72
2022/01/05 12:27:58;;;;;;;18.90;12.10;;;;;;;6.36;100.00;98626.69;10480027;28;20566;-70
2022/01/05 12:33:06;;;;;;;18.37;10.13;;;;;;;6.31;100.00;98610.50;10497269;28;20201;-64
2022/01/05 12:38:10;;;;;;;14.23;9.60;;;;;;;6.22;100.00;98600.38;10476737;28;20612;-64
2022/01/05 12:43:35;;;;;;;14.47;9.30;;;;;;;6.20;100.00;98609.84;10500398;28;20224;-65
2022/01/05 12:49:15;;;;;;;16.93;9.10;;;;;;;6.23;100.00;98604.63;10484254;28;20188;-64
2022/01/05 12:54:22;;;;;;;14.80;7.40;;;;;;;6.23;100.00;98609.78;10486799;28;20216;-66
2022/01/05 12:59:29;;;;;;;12.43;7.43;;;;;;;6.15;100.00;98614.25;10483308;28;20223;-64
2022/01/05 13:04:34;;;;;;;13.47;7.60;;;;;;;6.18;100.00;98605.63;10498904;28;20250;-65
2022/01/05 13:09:47;;;;;;;29.67;17.47;;;;;;;6.29;100.00;98621.69;10482083;28;20196;-70
2022/01/05 13:14:52;;;;;;;11.80;7.20;;;;;;;6.23;100.00;98624.41;10490232;28;20215;-63
2022/01/05 13:19:58;;;;;;;11.83;7.03;;;;;;;6.21;100.00;98621.88;10502055;28;20193;-67
2022/01/05 13:25:06;;;;;;;13.93;7.40;;;;;;;6.21;100.00;98627.03;10501499;28;20302;-66
2022/01/05 13:30:11;;;;;;;13.17;7.83;;;;;;;6.29;100.00;98635.44;10508599;28;20289;-66
2022/01/05 13:35:17;;;;;;;11.07;6.40;;;;;;;6.15;100.00;98627.13;10518764;28;20196;-65
2022/01/05 13:40:23;;;;;;;12.20;6.30;;;;;;;6.00;100.00;98630.03;10501521;28;20184;-65
2022/01/05 13:45:29;;;;;;;21.87;13.27;;;;;;;6.23;100.00;98624.41;10501023;28;20571;-66
2022/01/05 13:50:38;;;;;;;10.53;6.50;;;;;;;6.17;100.00;98625.38;10500387;28;20202;-64
2022/01/05 13:55:45;;;;;;;13.90;7.30;;;;;;;6.24;100.00;98636.41;10499539;28;20303;-64
2022/01/05 14:00:50;;;;;;;12.50;6.43;;;;;;;6.22;100.00;98646.75;10498856;28;20192;-63
2022/01/05 14:05:54;;;;;;;12.47;6.60;;;;;;;6.28;100.00;98650.94;10499652;28;20243;-65
2022/01/05 14:11:10;;;;;;;12.67;6.00;;;;;;;6.37;100.00;98648.13;10499488;28;20228;-67
2022/01/05 14:16:28;;;;;;;11.60;5.33;;;;;;;6.30;100.00;98655.16;10499210;28;20231;-68
2022/01/05 14:21:33;;;;;;;9.90;4.43;;;;;;;6.19;100.00;98663.97;10498730;28;20192;-66
2022/01/05 14:26:40;;;;;;;7.27;3.73;;;;;;;5.94;100.00;98681.63;10498799;28;20593;-65
2022/01/05 14:31:44;;;;;;;7.70;3.80;;;;;;;5.86;100.00;98714.38;10519546;28;20225;-64
2022/01/05 14:36:51;;;;;;;7.43;3.10;;;;;;;5.80;100.00;98714.44;10540387;28;20219;-64
2022/01/05 14:42:01;;;;;;;5.10;2.27;;;;;;;5.64;100.00;98725.91;10542857;28;20223;-63
2022/01/05 14:47:07;;;;;;;4.50;2.17;;;;;;;5.54;100.00;98725.19;10540143;28;20211;-65
2022/01/05 14:52:13;;;;;;;5.87;2.20;;;;;;;5.36;100.00;98746.06;10543115;28;20215;-65
2022/01/05 14:57:18;;;;;;;5.07;1.90;;;;;;;5.20;100.00;98749.75;10543255;28;20219;-66
2022/01/05 15:02:22;;;;;;;3.57;1.47;;;;;;;4.90;100.00;98759.59;10542650;28;20239;-67
2022/01/05 15:07:25;;;;;;;3.87;1.30;;;;;;;5.04;100.00;98762.84;10542850;28;20365;-64
2022/01/05 15:12:30;;;;;;;5.60;2.17;;;;;;;4.89;100.00;98786.16;10542359;28;20237;-65
2022/01/05 15:17:34;;;;;;;6.70;1.90;;;;;;;4.79;100.00;98790.59;10543100;28;20211;-65
2022/01/05 15:22:37;;;;;;;6.17;3.27;;;;;;;4.57;100.00;98792.53;10542572;28;20314;-65
2022/01/05 15:27:41;;;;;;;7.50;2.50;;;;;;;4.70;100.00;98814.66;10541858;28;20242;-65
2022/01/05 15:32:45;;;;;;;4.67;2.30;;;;;;;4.79;100.00;98816.28;10542234;28;20219;-64
2022/01/05 15:37:48;;;;;;;5.77;2.93;;;;;;;4.78;100.00;98831.72;10542136;28;20710;-67
2022/01/05 15:42:52;;;;;;;5.50;2.20;;;;;;;4.71;100.00;98831.78;10542314;28;20227;-65
2022/01/05 15:47:56;;;;;;;4.77;1.70;;;;;;;4.76;100.00;98833.44;10541769;28;20229;-62
2022/01/05 15:53:01;;;;;;;5.50;2.00;;;;;;;4.63;100.00;98825.88;10541612;28;20671;-65
2022/01/05 16:01:06;;;;;;;4.23;1.63;;;;;;;4.71;100.00;98833.53;10541532;28;20218;-61
2022/01/05 16:03:30;;;;;;;5.13;2.00;;;;;;;4.59;100.00;98820.81;10541297;28;20272;-69
2022/01/05 16:08:34;;;;;;;5.00;2.07;;;;;;;4.49;100.00;98835.47;10541226;28;20226;-67
2022/01/05 16:13:38;;;;;;;5.63;2.40;;;;;;;4.42;100.00;98838.09;10541249;28;20246;-65
2022/01/05 16:18:42;;;;;;;7.97;2.93;;;;;;;4.65;100.00;98833.56;10541721;28;20226;-67
2022/01/05 16:23:47;;;;;;;7.00;3.63;;;;;;;4.63;100.00;98827.59;10541282;28;20230;-65
2022/01/05 16:28:53;;;;;;;8.73;4.27;;;;;;;4.56;100.00;98843.94;10515099;28;20677;-65
2022/01/05 16:33:56;;;;;;;10.47;4.97;;;;;;;4.34;100.00;98851.03;10495793;28;20307;-64
2022/01/05 16:38:59;;;;;;;10.77;5.00;;;;;;;4.31;100.00;98858.78;10147064;27;10000723;-67
2022/01/05 16:44:06;;;;;;;20.00;9.40;;;;;;;4.21;100.00;98872.53;10503224;28;20673;-66
2022/01/05 16:49:12;;;;;;;11.10;5.50;;;;;;;4.27;100.00;98869.91;10502761;28;20346;-64
2022/01/05 16:54:17;;;;;;;12.60;6.13;;;;;;;4.23;100.00;98863.09;10502473;28;20216;-61
2022/01/05 17:04:44;;;;;;;12.47;5.67;;;;;;;4.35;100.00;98887.81;10502373;28;20246;-65
2022/01/05 17:09:48;;;;;;;14.03;6.27;;;;;;;4.19;100.00;98892.25;10502206;28;20631;-69
2022/01/05 17:14:52;;;;;;;14.30;7.20;;;;;;;4.17;100.00;98893.97;10502036;28;20669;-63
2022/01/05 17:19:56;;;;;;;14.37;5.83;;;;;;;4.31;100.00;98901.56;10501311;28;20219;-66
2022/01/05 17:25:04;;;;;;;11.07;6.00;;;;;;;4.30;100.00;98899.84;10501538;28;20319;-66
2022/01/05 17:30:10;;;;;;;14.53;7.20;;;;;;;4.30;100.00;98908.41;10501436;28;20608;-66
2022/01/05 17:35:15;;;;;;;36.70;21.67;;;;;;;4.57;100.00;98925.28;10500992;28;20310;-65
2022/01/05 17:40:18;;;;;;;9.93;5.50;;;;;;;4.27;100.00;98920.41;10500671;28;20654;-68
2022/01/05 17:45:23;;;;;;;11.87;5.40;;;;;;;4.41;100.00;98916.03;10532920;28;20226;-64
2022/01/05 17:50:29;;;;;;;15.97;8.03;;;;;;;4.45;100.00;98922.84;10541990;28;20321;-63
2022/01/05 17:55:38;;;;;;;11.87;5.10;;;;;;;4.18;100.00;98918.78;10542815;28;20226;-64
2022/01/05 18:00:46;;;;;;;16.20;7.63;;;;;;;4.16;100.00;98937.63;10541961;28;20302;-69
2022/01/05 18:05:49;;;;;;;14.27;6.13;;;;;;;4.40;100.00;98945.16;10541847;28;20246;-67
2022/01/05 18:10:53;;;;;;;14.30;5.30;;;;;;;4.32;100.00;98942.63;10543644;28;20216;-64
2022/01/05 18:16:03;;;;;;;11.23;5.33;;;;;;;4.23;100.00;98936.69;10541246;28;20311;-66
2022/01/05 18:21:07;;;;;;;12.97;6.10;;;;;;;4.19;100.00;98948.75;10541492;28;20203;-66
2022/01/05 18:26:16;;;;;;;39.43;19.20;;;;;;;4.24;100.00;98946.13;10540950;28;20242;-65
2022/01/05 18:31:22;;;;;;;12.10;5.40;;;;;;;4.16;100.00;98951.31;10507390;28;20205;-66
2022/01/05 18:36:28;;;;;;;11.97;4.80;;;;;;;4.29;100.00;98963.19;10483117;28;20223;-66
2022/01/05 18:41:32;;;;;;;11.60;4.33;;;;;;;4.34;100.00;98968.28;10504107;28;20702;-66
2022/01/05 18:46:36;;;;;;;7.77;4.00;;;;;;;4.31;100.00;98964.06;10476466;28;20233;-64
2022/01/05 18:51:44;;;;;;;10.10;4.37;;;;;;;4.12;100.00;98983.00;10501514;28;20746;-66
2022/01/05 18:56:47;;;;;;;13.77;4.57;;;;;;;4.09;100.00;98977.06;10500951;28;20311;-66
2022/01/05 19:01:52;;;;;;;11.83;5.30;;;;;;;4.23;100.00;98994.03;10499979;28;20208;-69
2022/01/05 19:06:56;;;;;;;9.23;4.40;;;;;;;4.12;100.00;98988.16;10500918;28;20556;-65
2022/01/05 19:11:59;;;;;;;9.83;3.93;;;;;;;4.21;100.00;98988.06;10500594;28;20588;-64
2022/01/05 19:17:04;;;;;;;11.53;4.10;;;;;;;4.35;100.00;98982.81;10501491;28;20235;-64
2022/01/05 19:22:09;;;;;;;10.67;4.27;;;;;;;4.24;100.00;99000.91;10500443;28;20267;-64
2022/01/05 19:27:14;;;;;;;13.60;4.23;;;;;;;4.30;100.00;98998.28;10500380;28;20326;-65
2022/01/05 19:32:20;;;;;;;15.23;4.13;;;;;;;4.19;100.00;99002.66;10500314;28;20721;-65
2022/01/05 19:37:25;;;;;;;9.63;4.27;;;;;;;4.16;100.00;98989.81;10500083;28;20253;-67
2022/01/05 19:42:28;;;;;;;9.00;3.57;;;;;;;4.19;100.00;98976.97;10499905;28;20220;-67
2022/01/05 19:47:33;;;;;;;10.73;4.70;;;;;;;4.29;100.00;98977.75;10500179;28;20238;-67
2022/01/05 19:52:44;;;;;;;8.97;4.63;;;;;;;3.91;100.00;98998.53;10500161;28;20212;-67
2022/01/05 19:57:48;;;;;;;16.13;5.43;;;;;;;3.89;100.00;98991.69;10491316;28;20221;-66
2022/01/05 20:02:52;;;;;;;9.40;4.27;;;;;;;4.14;100.00;98999.22;10458077;28;20312;-65
2022/01/05 20:07:56;;;;;;;9.30;4.97;;;;;;;3.93;100.00;98998.53;10458220;28;20285;-66
2022/01/05 20:12:59;;;;;;;11.70;4.83;;;;;;;3.83;100.00;99010.53;10500062;28;20196;-66
2022/01/05 20:18:08;;;;;;;11.40;5.07;;;;;;;3.75;100.00;99011.44;10507371;28;20192;-68
2022/01/05 20:23:12;;;;;;;14.00;5.83;;;;;;;4.00;100.00;99015.59;10507096;28;20216;-67
2022/01/05 20:28:15;;;;;;;14.73;5.40;;;;;;;3.84;100.00;99025.09;10507007;28;20265;-63
2022/01/05 20:33:20;;;;;;;9.27;5.40;;;;;;;3.63;100.00;99025.19;10506899;28;20648;-64
2022/01/05 20:38:23;;;;;;;14.37;8.03;;;;;;;3.67;100.00;99023.47;10506710;28;20200;-68
2022/01/05 20:43:27;;;;;;;13.17;6.37;;;;;;;3.81;100.00;99031.94;10506480;28;20192;-65
2022/01/05 20:48:32;;;;;;;11.73;5.50;;;;;;;3.82;100.00;99033.63;10505984;28;20202;-65
2022/01/05 20:53:36;;;;;;;10.73;5.73;;;;;;;3.79;100.00;99031.97;10506283;28;20200;-64
2022/01/05 20:58:40;;;;;;;12.40;5.47;;;;;;;3.83;100.00;99025.94;10505648;28;20725;-66
2022/01/05 21:03:46;;;;;;;10.53;4.80;;;;;;;3.95;100.00;99031.00;10505830;28;20742;-68
2022/01/05 21:08:50;;;;;;;16.20;6.43;;;;;;;3.59;100.00;99038.88;10505286;28;20196;-64
2022/01/05 21:13:53;;;;;;;14.40;6.13;;;;;;;3.54;100.00;99033.75;10505203;28;20299;-65
2022/01/05 21:18:58;;;;;;;14.93;5.30;;;;;;;3.55;100.00;99040.59;10505503;28;20710;-66
2022/01/05 21:24:01;;;;;;;11.10;5.57;;;;;;;3.78;100.00;99040.50;10505431;28;20228;-67
2022/01/05 21:29:06;;;;;;;11.73;5.20;;;;;;;3.70;100.00;99037.13;10504111;28;20303;-69
2022/01/05 21:34:11;;;;;;;12.40;5.13;;;;;;;3.63;100.00;99048.25;10504289;28;20298;-65
2022/01/05 21:39:18;;;;;;;10.97;4.93;;;;;;;3.54;100.00;99048.28;10504081;28;20216;-68
2022/01/05 21:44:22;;;;;;;10.93;4.57;;;;;;;3.57;100.00;99053.44;10504042;28;20224;-63
2022/01/05 21:49:26;;;;;;;10.80;4.07;;;;;;;3.62;100.00;99054.25;10503740;28;20565;-66
2022/01/05 21:54:30;;;;;;;8.47;3.80;;;;;;;3.69;100.00;99060.22;10503882;28;20226;-68
2022/01/05 21:59:33;;;;;;;11.70;4.33;;;;;;;3.85;100.00;99046.47;10503509;28;20212;-67
2022/01/05 22:04:38;;;;;;;10.23;4.03;;;;;;;3.63;100.00;99035.44;10503385;28;20289;-65
2022/01/05 22:09:41;;;;;;;11.03;4.30;;;;;;;3.53;100.00;99031.22;10502857;28;20226;-67
2022/01/05 22:14:59;;;;;;;9.00;3.83;;;;;;;3.51;100.00;99035.47;10502766;28;20223;-70
2022/01/05 22:20:04;;;;;;;9.57;3.60;;;;;;;3.60;100.00;99037.16;10502636;28;20216;-67
2022/01/05 22:25:08;;;;;;;8.53;4.13;;;;;;;3.59;100.00;99041.44;10502401;28;20675;-66
2022/01/05 22:30:12;;;;;;;10.43;3.73;;;;;;;3.64;100.00;99044.84;10502213;28;20226;-65
2022/01/05 22:35:17;;;;;;;12.17;3.40;;;;;;;3.60;100.00;99058.53;10502043;28;20216;-64
2022/01/05 22:40:20;;;;;;;11.83;3.83;;;;;;;3.82;100.00;99044.78;10501937;28;20211;-66
2022/01/05 22:45:23;;;;;;;9.67;3.37;;;;;;;3.70;100.00;99052.50;10500244;28;20228;-65
2022/01/05 22:50:28;;;;;;;11.43;4.20;;;;;;;3.66;100.00;99045.69;10501572;28;20224;-68
2022/01/05 22:55:31;;;;;;;6.80;3.00;;;;;;;3.72;100.00;99032.84;10501216;28;20224;-66
2022/01/05 23:00:37;;;;;;;11.83;4.30;;;;;;;3.64;100.00;99044.00;10500952;28;20216;-67
2022/01/05 23:05:43;;;;;;;9.80;4.50;;;;;;;3.65;100.00;99038.00;10500853;28;20236;-64
2022/01/05 23:10:46;;;;;;;10.33;3.63;;;;;;;3.66;100.00;99037.16;10500933;28;20220;-72
2022/01/05 23:15:51;;;;;;;14.67;5.30;;;;;;;3.78;100.00;99030.22;10478843;28;20224;-68
2022/01/05 23:20:56;;;;;;;9.67;3.87;;;;;;;3.61;100.00;99029.47;10187038;27;10000289;-67
2022/01/05 23:26:02;;;;;;;14.33;4.10;;;;;;;3.69;100.00;99021.75;10538991;28;20223;-68
2022/01/05 23:31:05;;;;;;;8.90;3.30;;;;;;;3.81;100.00;99014.00;10539387;28;20216;-70